sensor_id;sensor_type;location;lat;lon;timestamp;temperature;humidity
20341;DHT22;10328;50.042;8.238;2022-08-30T00:01:58;17.00;99.90
20341;DHT22;10328;50.042;8.238;2022-08-30T00:04:25;17.00;99.90
20341;DHT22;10328;50.042;8.238;2022-08-30T00:06:52;17.10;99.90
20341;DHT22;10328;50.042;8.238;2022-08-30T00:09:18;17.10;99.90
20341;DHT22;10328;50.042;8.238;2022-08-30T00:11:45;17.10;99.90
20341;DHT22;10328;50.042;8.238;2022-08-30T00:14:12;17.10;99.90
20341;DHT22;10328;50.042;8.238;2022-08-30T00:16:38;17.00;99.90
20341;DHT22;10328;50.042;8.238;2022-08-30T00:19:05;16.90;99.90
20341;DHT22;10328;50.042;8.238;2022-08-30T00:21:32;16.70;99.90
20341;DHT22;10328;50.042;8.238;2022-08-30T00:23:59;16.50;99.90
20341;DHT22;10328;50.042;8.238;2022-08-30T00:26:25;16.30;99.90
20341;DHT22;10328;50.042;8.238;2022-08-30T00:28:52;16.30;99.90
20341;DHT22;10328;50.042;8.238;2022-08-30T00:31:19;16.30;99.90
20341;DHT22;10328;50.042;8.238;2022-08-30T00:33:45;16.30;99.90
20341;DHT22;10328;50.042;8.238;2022-08-30T00:36:12;16.40;99.90
20341;DHT22;10328;50.042;8.238;2022-08-30T00:38:39;16.40;99.90
20341;DHT22;10328;50.042;8.238;2022-08-30T00:41:06;16.30;99.90
20341;DHT22;10328;50.042;8.238;2022-08-30T00:43:33;16.20;99.90
20341;DHT22;10328;50.042;8.238;2022-08-30T00:46:03;16.10;99.90
20341;DHT22;10328;50.042;8.238;2022-08-30T00:48:36;16.10;99.90
20341;DHT22;10328;50.042;8.238;2022-08-30T00:51:08;16.00;99.90
20341;DHT22;10328;50.042;8.238;2022-08-30T00:53:38;16.00;99.90
20341;DHT22;10328;50.042;8.238;2022-08-30T00:56:06;16.20;99.90
20341;DHT22;10328;50.042;8.238;2022-08-30T00:58:35;16.20;99.90
20341;DHT22;10328;50.042;8.238;2022-08-30T01:01:03;16.20;99.90
20341;DHT22;10328;50.042;8.238;2022-08-30T01:03:33;16.20;99.90
20341;DHT22;10328;50.042;8.238;2022-08-30T01:06:02;16.10;99.90
20341;DHT22;10328;50.042;8.238;2022-08-30T01:08:28;16.10;99.90
20341;DHT22;10328;50.042;8.238;2022-08-30T01:10:55;16.10;99.90
20341;DHT22;10328;50.042;8.238;2022-08-30T01:13:24;16.00;99.90
20341;DHT22;10328;50.042;8.238;2022-08-30T01:15:52;16.00;99.90
20341;DHT22;10328;50.042;8.238;2022-08-30T01:18:22;15.90;99.90
20341;DHT22;10328;50.042;8.238;2022-08-30T01:21:03;15.80;99.90
20341;DHT22;10328;50.042;8.238;2022-08-30T01:23:33;15.80;99.90
20341;DHT22;10328;50.042;8.238;2022-08-30T01:26:04;15.70;99.90
20341;DHT22;10328;50.042;8.238;2022-08-30T01:28:32;15.80;99.90
20341;DHT22;10328;50.042;8.238;2022-08-30T01:30:59;15.90;99.90
20341;DHT22;10328;50.042;8.238;2022-08-30T01:33:27;15.80;99.90
20341;DHT22;10328;50.042;8.238;2022-08-30T01:35:55;15.80;99.90
20341;DHT22;10328;50.042;8.238;2022-08-30T01:38:35;15.80;99.90
20341;DHT22;10328;50.042;8.238;2022-08-30T01:41:14;15.70;99.90
20341;DHT22;10328;50.042;8.238;2022-08-30T01:43:41;15.70;99.90
20341;DHT22;10328;50.042;8.238;2022-08-30T01:46:09;15.70;99.90
20341;DHT22;10328;50.042;8.238;2022-08-30T01:48:39;15.70;99.90
20341;DHT22;10328;50.042;8.238;2022-08-30T01:51:09;15.70;99.90
20341;DHT22;10328;50.042;8.238;2022-08-30T01:53:39;15.60;99.90
20341;DHT22;10328;50.042;8.238;2022-08-30T01:56:06;15.60;99.90
20341;DHT22;10328;50.042;8.238;2022-08-30T01:58:35;15.80;99.90
20341;DHT22;10328;50.042;8.238;2022-08-30T02:01:04;15.90;99.90
20341;DHT22;10328;50.042;8.238;2022-08-30T02:03:32;16.10;99.90
20341;DHT22;10328;50.042;8.238;2022-08-30T02:06:06;16.10;99.90
20341;DHT22;10328;50.042;8.238;2022-08-30T02:08:34;16.00;99.90
20341;DHT22;10328;50.042;8.238;2022-08-30T02:11:02;15.90;99.90
20341;DHT22;10328;50.042;8.238;2022-08-30T02:13:29;16.00;99.90
20341;DHT22;10328;50.042;8.238;2022-08-30T02:15:56;16.00;99.90
20341;DHT22;10328;50.042;8.238;2022-08-30T02:18:24;16.10;99.90
20341;DHT22;10328;50.042;8.238;2022-08-30T02:20:52;16.10;99.90
20341;DHT22;10328;50.042;8.238;2022-08-30T02:23:18;16.00;99.90
20341;DHT22;10328;50.042;8.238;2022-08-30T02:25:45;16.00;99.90
20341;DHT22;10328;50.042;8.238;2022-08-30T02:28:12;16.00;99.90
20341;DHT22;10328;50.042;8.238;2022-08-30T02:30:44;15.90;99.90
20341;DHT22;10328;50.042;8.238;2022-08-30T02:33:11;15.70;99.90
20341;DHT22;10328;50.042;8.238;2022-08-30T02:35:38;15.50;99.90
20341;DHT22;10328;50.042;8.238;2022-08-30T02:38:05;15.40;99.90
20341;DHT22;10328;50.042;8.238;2022-08-30T02:40:32;15.30;99.90
20341;DHT22;10328;50.042;8.238;2022-08-30T02:42:59;15.30;99.90
20341;DHT22;10328;50.042;8.238;2022-08-30T02:45:26;15.20;99.90
20341;DHT22;10328;50.042;8.238;2022-08-30T02:47:53;15.20;99.90
20341;DHT22;10328;50.042;8.238;2022-08-30T02:50:23;15.20;99.90
20341;DHT22;10328;50.042;8.238;2022-08-30T02:52:50;15.20;99.90
20341;DHT22;10328;50.042;8.238;2022-08-30T02:55:19;15.20;99.90
20341;DHT22;10328;50.042;8.238;2022-08-30T02:57:46;15.40;99.90
20341;DHT22;10328;50.042;8.238;2022-08-30T03:00:15;15.50;99.90
20341;DHT22;10328;50.042;8.238;2022-08-30T03:02:42;15.50;99.90
20341;DHT22;10328;50.042;8.238;2022-08-30T03:05:11;15.50;99.90
20341;DHT22;10328;50.042;8.238;2022-08-30T03:07:39;15.40;99.90
20341;DHT22;10328;50.042;8.238;2022-08-30T03:10:07;15.20;99.90
20341;DHT22;10328;50.042;8.238;2022-08-30T03:12:34;15.10;99.90
20341;DHT22;10328;50.042;8.238;2022-08-30T03:15:04;15.00;99.90
20341;DHT22;10328;50.042;8.238;2022-08-30T03:17:31;15.10;99.90
20341;DHT22;10328;50.042;8.238;2022-08-30T03:19:58;15.10;99.90
20341;DHT22;10328;50.042;8.238;2022-08-30T03:22:28;15.00;99.90
20341;DHT22;10328;50.042;8.238;2022-08-30T03:24:55;15.00;99.90
20341;DHT22;10328;50.042;8.238;2022-08-30T03:27:26;14.90;99.90
20341;DHT22;10328;50.042;8.238;2022-08-30T03:29:53;14.90;99.90
20341;DHT22;10328;50.042;8.238;2022-08-30T03:32:20;14.80;99.90
20341;DHT22;10328;50.042;8.238;2022-08-30T03:34:47;14.80;99.90
20341;DHT22;10328;50.042;8.238;2022-08-30T03:37:14;14.70;99.90
20341;DHT22;10328;50.042;8.238;2022-08-30T03:39:41;14.70;99.90
20341;DHT22;10328;50.042;8.238;2022-08-30T03:42:11;14.60;99.90
20341;DHT22;10328;50.042;8.238;2022-08-30T03:44:38;14.70;99.90
20341;DHT22;10328;50.042;8.238;2022-08-30T03:47:06;14.70;99.90
20341;DHT22;10328;50.042;8.238;2022-08-30T03:49:34;14.70;99.90
20341;DHT22;10328;50.042;8.238;2022-08-30T03:52:00;14.70;99.90
20341;DHT22;10328;50.042;8.238;2022-08-30T03:54:27;14.70;99.90
20341;DHT22;10328;50.042;8.238;2022-08-30T03:56:54;14.70;99.90
20341;DHT22;10328;50.042;8.238;2022-08-30T03:59:21;14.70;99.90
20341;DHT22;10328;50.042;8.238;2022-08-30T04:01:48;14.70;99.90
20341;DHT22;10328;50.042;8.238;2022-08-30T04:04:15;14.80;99.90
20341;DHT22;10328;50.042;8.238;2022-08-30T04:06:47;14.80;99.90
20341;DHT22;10328;50.042;8.238;2022-08-30T04:09:13;14.70;99.90
20341;DHT22;10328;50.042;8.238;2022-08-30T04:11:40;14.60;99.90
20341;DHT22;10328;50.042;8.238;2022-08-30T04:14:06;14.60;99.90
20341;DHT22;10328;50.042;8.238;2022-08-30T04:16:33;14.60;99.90
20341;DHT22;10328;50.042;8.238;2022-08-30T04:19:00;14.50;99.90
20341;DHT22;10328;50.042;8.238;2022-08-30T04:21:27;14.50;99.90
20341;DHT22;10328;50.042;8.238;2022-08-30T04:23:53;14.50;99.90
20341;DHT22;10328;50.042;8.238;2022-08-30T04:26:20;14.50;99.90
20341;DHT22;10328;50.042;8.238;2022-08-30T04:28:47;14.50;99.90
20341;DHT22;10328;50.042;8.238;2022-08-30T04:31:15;14.40;99.90
20341;DHT22;10328;50.042;8.238;2022-08-30T04:33:42;14.50;99.90
20341;DHT22;10328;50.042;8.238;2022-08-30T04:36:10;14.60;99.90
20341;DHT22;10328;50.042;8.238;2022-08-30T04:38:37;14.70;99.90
20341;DHT22;10328;50.042;8.238;2022-08-30T04:41:10;14.70;99.90
20341;DHT22;10328;50.042;8.238;2022-08-30T04:43:38;14.80;99.90
20341;DHT22;10328;50.042;8.238;2022-08-30T04:46:06;14.70;99.90
20341;DHT22;10328;50.042;8.238;2022-08-30T04:48:34;14.60;99.90
20341;DHT22;10328;50.042;8.238;2022-08-30T04:51:05;14.60;99.90
20341;DHT22;10328;50.042;8.238;2022-08-30T04:53:33;14.50;99.90
20341;DHT22;10328;50.042;8.238;2022-08-30T04:56:00;14.70;99.90
20341;DHT22;10328;50.042;8.238;2022-08-30T04:58:26;14.80;99.90
20341;DHT22;10328;50.042;8.238;2022-08-30T05:00:53;14.80;99.90
20341;DHT22;10328;50.042;8.238;2022-08-30T05:03:20;14.80;99.90
20341;DHT22;10328;50.042;8.238;2022-08-30T05:05:50;14.90;99.90
20341;DHT22;10328;50.042;8.238;2022-08-30T05:08:19;14.90;99.90
20341;DHT22;10328;50.042;8.238;2022-08-30T05:10:51;14.90;99.90
20341;DHT22;10328;50.042;8.238;2022-08-30T05:13:20;14.90;99.90
20341;DHT22;10328;50.042;8.238;2022-08-30T05:16:00;14.90;99.90
20341;DHT22;10328;50.042;8.238;2022-08-30T05:18:27;15.00;99.90
20341;DHT22;10328;50.042;8.238;2022-08-30T05:21:11;15.00;99.90
20341;DHT22;10328;50.042;8.238;2022-08-30T05:23:39;15.00;99.90
20341;DHT22;10328;50.042;8.238;2022-08-30T05:26:11;15.00;99.90
20341;DHT22;10328;50.042;8.238;2022-08-30T05:28:38;15.00;99.90
20341;DHT22;10328;50.042;8.238;2022-08-30T05:31:30;15.10;99.90
20341;DHT22;10328;50.042;8.238;2022-08-30T05:33:57;15.20;99.90
20341;DHT22;10328;50.042;8.238;2022-08-30T05:36:27;15.30;99.90
20341;DHT22;10328;50.042;8.238;2022-08-30T05:38:54;15.40;99.90
20341;DHT22;10328;50.042;8.238;2022-08-30T05:41:22;15.60;99.90
20341;DHT22;10328;50.042;8.238;2022-08-30T05:43:53;15.80;99.90
20341;DHT22;10328;50.042;8.238;2022-08-30T05:46:21;15.90;99.90
20341;DHT22;10328;50.042;8.238;2022-08-30T05:48:48;16.00;99.90
20341;DHT22;10328;50.042;8.238;2022-08-30T05:51:21;16.20;99.90
20341;DHT22;10328;50.042;8.238;2022-08-30T05:53:49;16.20;99.90
20341;DHT22;10328;50.042;8.238;2022-08-30T05:56:19;16.20;99.90
20341;DHT22;10328;50.042;8.238;2022-08-30T05:58:50;16.40;99.90
20341;DHT22;10328;50.042;8.238;2022-08-30T06:01:28;16.50;99.90
20341;DHT22;10328;50.042;8.238;2022-08-30T06:03:58;16.60;99.90
20341;DHT22;10328;50.042;8.238;2022-08-30T06:06:32;16.60;99.90
20341;DHT22;10328;50.042;8.238;2022-08-30T06:09:00;16.70;99.90
20341;DHT22;10328;50.042;8.238;2022-08-30T06:11:30;16.80;99.90
20341;DHT22;10328;50.042;8.238;2022-08-30T06:13:57;16.80;99.90
20341;DHT22;10328;50.042;8.238;2022-08-30T06:16:26;16.90;99.90
20341;DHT22;10328;50.042;8.238;2022-08-30T06:18:54;17.10;99.90
20341;DHT22;10328;50.042;8.238;2022-08-30T06:21:24;17.30;99.90
20341;DHT22;10328;50.042;8.238;2022-08-30T06:23:51;17.30;99.90
20341;DHT22;10328;50.042;8.238;2022-08-30T06:26:18;17.50;99.90
20341;DHT22;10328;50.042;8.238;2022-08-30T06:28:45;17.60;99.90
20341;DHT22;10328;50.042;8.238;2022-08-30T06:31:14;17.80;99.90
20341;DHT22;10328;50.042;8.238;2022-08-30T06:33:42;18.00;99.90
20341;DHT22;10328;50.042;8.238;2022-08-30T06:36:12;18.30;99.90
20341;DHT22;10328;50.042;8.238;2022-08-30T06:38:40;18.40;99.90
20341;DHT22;10328;50.042;8.238;2022-08-30T06:41:08;18.60;99.90
20341;DHT22;10328;50.042;8.238;2022-08-30T06:43:35;18.70;99.90
20341;DHT22;10328;50.042;8.238;2022-08-30T06:46:04;18.80;99.90
20341;DHT22;10328;50.042;8.238;2022-08-30T06:48:31;18.80;99.90
20341;DHT22;10328;50.042;8.238;2022-08-30T06:50:57;19.00;99.90
20341;DHT22;10328;50.042;8.238;2022-08-30T06:53:25;19.10;99.90
20341;DHT22;10328;50.042;8.238;2022-08-30T06:56:05;19.30;99.90
20341;DHT22;10328;50.042;8.238;2022-08-30T06:58:33;19.50;99.90
20341;DHT22;10328;50.042;8.238;2022-08-30T07:01:01;19.70;99.90
20341;DHT22;10328;50.042;8.238;2022-08-30T07:03:28;19.80;99.90
20341;DHT22;10328;50.042;8.238;2022-08-30T07:05:56;19.90;99.90
20341;DHT22;10328;50.042;8.238;2022-08-30T07:08:23;20.10;99.90
20341;DHT22;10328;50.042;8.238;2022-08-30T07:10:51;20.50;99.90
20341;DHT22;10328;50.042;8.238;2022-08-30T07:13:21;20.80;99.90
20341;DHT22;10328;50.042;8.238;2022-08-30T07:15:50;21.10;99.90
20341;DHT22;10328;50.042;8.238;2022-08-30T07:18:17;21.60;99.90
20341;DHT22;10328;50.042;8.238;2022-08-30T07:21:10;22.00;99.90
20341;DHT22;10328;50.042;8.238;2022-08-30T07:23:37;22.60;99.90
20341;DHT22;10328;50.042;8.238;2022-08-30T07:26:10;22.90;99.90
20341;DHT22;10328;50.042;8.238;2022-08-30T07:28:40;23.10;99.90
20341;DHT22;10328;50.042;8.238;2022-08-30T07:31:08;23.10;99.90
20341;DHT22;10328;50.042;8.238;2022-08-30T07:33:35;23.20;99.90
20341;DHT22;10328;50.042;8.238;2022-08-30T07:36:03;23.30;99.90
20341;DHT22;10328;50.042;8.238;2022-08-30T07:38:30;23.40;99.90
20341;DHT22;10328;50.042;8.238;2022-08-30T07:40:57;23.60;99.90
20341;DHT22;10328;50.042;8.238;2022-08-30T07:43:27;23.70;99.90
20341;DHT22;10328;50.042;8.238;2022-08-30T07:45:54;23.90;99.90
20341;DHT22;10328;50.042;8.238;2022-08-30T07:48:23;23.90;99.90
20341;DHT22;10328;50.042;8.238;2022-08-30T07:50:50;24.00;99.90
20341;DHT22;10328;50.042;8.238;2022-08-30T07:53:23;24.20;99.90
20341;DHT22;10328;50.042;8.238;2022-08-30T07:55:50;24.20;99.90
20341;DHT22;10328;50.042;8.238;2022-08-30T07:58:16;24.40;99.90
20341;DHT22;10328;50.042;8.238;2022-08-30T08:00:44;24.50;99.90
20341;DHT22;10328;50.042;8.238;2022-08-30T08:03:11;24.60;99.90
20341;DHT22;10328;50.042;8.238;2022-08-30T08:05:39;24.60;99.90
20341;DHT22;10328;50.042;8.238;2022-08-30T08:08:07;24.60;99.90
20341;DHT22;10328;50.042;8.238;2022-08-30T08:10:36;24.50;99.90
20341;DHT22;10328;50.042;8.238;2022-08-30T08:13:04;24.40;99.90
20341;DHT22;10328;50.042;8.238;2022-08-30T08:15:31;24.40;99.90
20341;DHT22;10328;50.042;8.238;2022-08-30T08:17:58;24.20;99.90
20341;DHT22;10328;50.042;8.238;2022-08-30T08:20:25;24.10;99.90
20341;DHT22;10328;50.042;8.238;2022-08-30T08:22:52;24.20;99.90
20341;DHT22;10328;50.042;8.238;2022-08-30T08:25:19;24.30;99.90
20341;DHT22;10328;50.042;8.238;2022-08-30T08:27:46;24.30;99.90
20341;DHT22;10328;50.042;8.238;2022-08-30T08:30:14;24.40;99.90
20341;DHT22;10328;50.042;8.238;2022-08-30T08:32:41;24.60;99.90
20341;DHT22;10328;50.042;8.238;2022-08-30T08:35:08;24.80;99.90
20341;DHT22;10328;50.042;8.238;2022-08-30T08:37:37;24.90;99.90
20341;DHT22;10328;50.042;8.238;2022-08-30T08:40:05;25.00;99.90
20341;DHT22;10328;50.042;8.238;2022-08-30T08:42:47;25.10;99.90
20341;DHT22;10328;50.042;8.238;2022-08-30T08:45:20;25.20;99.90
20341;DHT22;10328;50.042;8.238;2022-08-30T08:48:16;25.30;99.90
20341;DHT22;10328;50.042;8.238;2022-08-30T08:50:46;25.50;99.90
20341;DHT22;10328;50.042;8.238;2022-08-30T08:53:33;25.40;99.90
20341;DHT22;10328;50.042;8.238;2022-08-30T08:56:17;25.30;99.90
20341;DHT22;10328;50.042;8.238;2022-08-30T08:58:45;25.20;99.90
20341;DHT22;10328;50.042;8.238;2022-08-30T09:01:15;25.40;99.90
20341;DHT22;10328;50.042;8.238;2022-08-30T09:03:43;25.40;99.90
20341;DHT22;10328;50.042;8.238;2022-08-30T09:08:45;25.50;99.90
20341;DHT22;10328;50.042;8.238;2022-08-30T09:11:21;25.50;99.90
20341;DHT22;10328;50.042;8.238;2022-08-30T09:13:52;25.70;99.90
20341;DHT22;10328;50.042;8.238;2022-08-30T09:19:23;26.10;99.90
20341;DHT22;10328;50.042;8.238;2022-08-30T09:24:46;26.30;99.90
20341;DHT22;10328;50.042;8.238;2022-08-30T09:27:35;26.30;99.90
20341;DHT22;10328;50.042;8.238;2022-08-30T09:32:52;26.40;99.90
20341;DHT22;10328;50.042;8.238;2022-08-30T09:38:11;26.60;99.90
20341;DHT22;10328;50.042;8.238;2022-08-30T09:40:45;26.70;99.90
20341;DHT22;10328;50.042;8.238;2022-08-30T09:48:31;27.10;99.90
20341;DHT22;10328;50.042;8.238;2022-08-30T09:51:23;27.30;99.90
20341;DHT22;10328;50.042;8.238;2022-08-30T09:54:21;27.40;99.90
20341;DHT22;10328;50.042;8.238;2022-08-30T09:57:03;27.20;99.90
20341;DHT22;10328;50.042;8.238;2022-08-30T10:00:01;27.20;99.60
20341;DHT22;10328;50.042;8.238;2022-08-30T10:11:18;27.40;98.70
20341;DHT22;10328;50.042;8.238;2022-08-30T10:16:52;27.20;98.50
20341;DHT22;10328;50.042;8.238;2022-08-30T10:22:27;27.30;98.90
20341;DHT22;10328;50.042;8.238;2022-08-30T10:25:23;27.50;98.20
20341;DHT22;10328;50.042;8.238;2022-08-30T10:27:54;27.80;97.80
20341;DHT22;10328;50.042;8.238;2022-08-30T10:30:21;27.80;97.70
20341;DHT22;10328;50.042;8.238;2022-08-30T10:32:53;27.90;97.60
20341;DHT22;10328;50.042;8.238;2022-08-30T10:35:29;28.00;97.60
20341;DHT22;10328;50.042;8.238;2022-08-30T10:38:14;28.20;97.50
20341;DHT22;10328;50.042;8.238;2022-08-30T10:40:47;28.40;96.90
20341;DHT22;10328;50.042;8.238;2022-08-30T10:49:13;27.90;97.10
20341;DHT22;10328;50.042;8.238;2022-08-30T10:51:49;28.00;96.40
20341;DHT22;10328;50.042;8.238;2022-08-30T10:57:03;28.10;96.30
20341;DHT22;10328;50.042;8.238;2022-08-30T10:59:30;28.20;96.00
20341;DHT22;10328;50.042;8.238;2022-08-30T11:07:43;28.20;95.90
20341;DHT22;10328;50.042;8.238;2022-08-30T11:13:00;28.70;95.20
20341;DHT22;10328;50.042;8.238;2022-08-30T11:15:34;28.90;94.50
20341;DHT22;10328;50.042;8.238;2022-08-30T11:20:51;28.90;94.50
20341;DHT22;10328;50.042;8.238;2022-08-30T11:23:32;29.10;95.00
20341;DHT22;10328;50.042;8.238;2022-08-30T11:26:09;29.10;93.90
20341;DHT22;10328;50.042;8.238;2022-08-30T11:34:09;29.30;94.50
20341;DHT22;10328;50.042;8.238;2022-08-30T11:37:01;29.10;94.30
20341;DHT22;10328;50.042;8.238;2022-08-30T11:42:40;29.40;94.40
20341;DHT22;10328;50.042;8.238;2022-08-30T11:47:53;29.70;93.50
20341;DHT22;10328;50.042;8.238;2022-08-30T11:53:36;29.70;93.80
20341;DHT22;10328;50.042;8.238;2022-08-30T11:59:29;30.00;93.60
20341;DHT22;10328;50.042;8.238;2022-08-30T12:01:59;29.90;93.40
20341;DHT22;10328;50.042;8.238;2022-08-30T12:07:07;29.70;93.30
20341;DHT22;10328;50.042;8.238;2022-08-30T12:12:09;29.90;93.20
20341;DHT22;10328;50.042;8.238;2022-08-30T12:14:50;30.00;92.80
20341;DHT22;10328;50.042;8.238;2022-08-30T12:17:31;29.90;93.20
20341;DHT22;10328;50.042;8.238;2022-08-30T12:20:26;29.90;93.40
20341;DHT22;10328;50.042;8.238;2022-08-30T12:22:55;30.10;93.00
20341;DHT22;10328;50.042;8.238;2022-08-30T12:25:30;30.30;92.70
20341;DHT22;10328;50.042;8.238;2022-08-30T12:28:22;30.40;92.80
20341;DHT22;10328;50.042;8.238;2022-08-30T12:30:50;30.50;92.80
20341;DHT22;10328;50.042;8.238;2022-08-30T12:33:27;30.70;92.50
20341;DHT22;10328;50.042;8.238;2022-08-30T12:35:55;30.80;92.50
20341;DHT22;10328;50.042;8.238;2022-08-30T12:38:24;30.70;92.00
20341;DHT22;10328;50.042;8.238;2022-08-30T12:40:57;30.60;92.20
20341;DHT22;10328;50.042;8.238;2022-08-30T12:43:34;30.50;92.50
20341;DHT22;10328;50.042;8.238;2022-08-30T12:46:10;30.60;92.10
20341;DHT22;10328;50.042;8.238;2022-08-30T12:48:39;30.90;91.70
20341;DHT22;10328;50.042;8.238;2022-08-30T12:51:06;31.00;91.90
20341;DHT22;10328;50.042;8.238;2022-08-30T12:53:39;31.10;91.60
20341;DHT22;10328;50.042;8.238;2022-08-30T12:56:14;31.30;91.40
20341;DHT22;10328;50.042;8.238;2022-08-30T12:58:55;31.30;91.40
20341;DHT22;10328;50.042;8.238;2022-08-30T13:01:30;31.40;91.30
20341;DHT22;10328;50.042;8.238;2022-08-30T13:04:10;31.40;91.60
20341;DHT22;10328;50.042;8.238;2022-08-30T13:09:42;31.60;90.90
20341;DHT22;10328;50.042;8.238;2022-08-30T13:12:20;31.70;90.60
20341;DHT22;10328;50.042;8.238;2022-08-30T13:14:47;31.90;90.50
20341;DHT22;10328;50.042;8.238;2022-08-30T13:22:41;31.80;90.10
20341;DHT22;10328;50.042;8.238;2022-08-30T13:25:09;31.80;90.60
20341;DHT22;10328;50.042;8.238;2022-08-30T13:27:37;31.90;90.60
20341;DHT22;10328;50.042;8.238;2022-08-30T13:30:14;32.00;88.70
20341;DHT22;10328;50.042;8.238;2022-08-30T13:32:43;32.00;88.90
20341;DHT22;10328;50.042;8.238;2022-08-30T13:35:11;32.00;88.90
20341;DHT22;10328;50.042;8.238;2022-08-30T13:37:38;31.80;88.90
20341;DHT22;10328;50.042;8.238;2022-08-30T13:40:17;31.60;88.80
20341;DHT22;10328;50.042;8.238;2022-08-30T13:42:44;31.50;89.30
20341;DHT22;10328;50.042;8.238;2022-08-30T13:45:13;31.40;90.10
20341;DHT22;10328;50.042;8.238;2022-08-30T13:48:00;31.50;90.40
20341;DHT22;10328;50.042;8.238;2022-08-30T13:50:27;31.60;89.30
20341;DHT22;10328;50.042;8.238;2022-08-30T13:52:56;31.40;89.10
20341;DHT22;10328;50.042;8.238;2022-08-30T13:55:22;31.30;89.70
20341;DHT22;10328;50.042;8.238;2022-08-30T13:57:49;31.20;89.50
20341;DHT22;10328;50.042;8.238;2022-08-30T14:00:20;31.20;90.20
20341;DHT22;10328;50.042;8.238;2022-08-30T14:02:49;31.10;90.20
20341;DHT22;10328;50.042;8.238;2022-08-30T14:05:27;31.20;90.10
20341;DHT22;10328;50.042;8.238;2022-08-30T14:08:20;31.40;90.40
20341;DHT22;10328;50.042;8.238;2022-08-30T14:11:08;31.70;90.00
20341;DHT22;10328;50.042;8.238;2022-08-30T14:13:38;31.70;88.80
20341;DHT22;10328;50.042;8.238;2022-08-30T14:16:26;31.50;89.50
20341;DHT22;10328;50.042;8.238;2022-08-30T14:18:54;31.30;88.90
20341;DHT22;10328;50.042;8.238;2022-08-30T14:21:22;30.90;89.50
20341;DHT22;10328;50.042;8.238;2022-08-30T14:23:54;30.80;89.60
20341;DHT22;10328;50.042;8.238;2022-08-30T14:26:31;30.80;89.50
20341;DHT22;10328;50.042;8.238;2022-08-30T14:29:04;30.80;89.60
20341;DHT22;10328;50.042;8.238;2022-08-30T14:31:35;30.90;88.80
20341;DHT22;10328;50.042;8.238;2022-08-30T14:34:02;31.10;88.50
20341;DHT22;10328;50.042;8.238;2022-08-30T14:36:32;31.20;88.50
20341;DHT22;10328;50.042;8.238;2022-08-30T14:38:59;31.30;88.20
20341;DHT22;10328;50.042;8.238;2022-08-30T14:41:26;31.60;88.70
20341;DHT22;10328;50.042;8.238;2022-08-30T14:43:52;31.70;88.20
20341;DHT22;10328;50.042;8.238;2022-08-30T14:46:19;31.80;87.60
20341;DHT22;10328;50.042;8.238;2022-08-30T14:48:47;31.60;87.60
20341;DHT22;10328;50.042;8.238;2022-08-30T14:51:17;31.70;86.90
20341;DHT22;10328;50.042;8.238;2022-08-30T14:53:46;31.40;87.30
20341;DHT22;10328;50.042;8.238;2022-08-30T14:56:15;31.40;87.80
20341;DHT22;10328;50.042;8.238;2022-08-30T14:58:49;31.30;87.60
20341;DHT22;10328;50.042;8.238;2022-08-30T15:01:18;31.20;87.90
20341;DHT22;10328;50.042;8.238;2022-08-30T15:03:45;30.90;88.10
20341;DHT22;10328;50.042;8.238;2022-08-30T15:06:12;30.80;88.20
20341;DHT22;10328;50.042;8.238;2022-08-30T15:08:40;30.90;88.30
20341;DHT22;10328;50.042;8.238;2022-08-30T15:11:08;31.10;88.60
20341;DHT22;10328;50.042;8.238;2022-08-30T15:13:36;31.20;88.30
20341;DHT22;10328;50.042;8.238;2022-08-30T15:16:13;31.30;87.30
20341;DHT22;10328;50.042;8.238;2022-08-30T15:18:40;31.20;87.20
20341;DHT22;10328;50.042;8.238;2022-08-30T15:21:08;31.20;87.00
20341;DHT22;10328;50.042;8.238;2022-08-30T15:23:35;31.20;87.50
20341;DHT22;10328;50.042;8.238;2022-08-30T15:26:02;31.10;88.00
20341;DHT22;10328;50.042;8.238;2022-08-30T15:28:30;31.20;87.60
20341;DHT22;10328;50.042;8.238;2022-08-30T15:30:56;31.20;87.30
20341;DHT22;10328;50.042;8.238;2022-08-30T15:33:23;31.20;87.60
20341;DHT22;10328;50.042;8.238;2022-08-30T15:35:50;31.00;87.60
20341;DHT22;10328;50.042;8.238;2022-08-30T15:38:18;30.80;88.30
20341;DHT22;10328;50.042;8.238;2022-08-30T15:40:48;30.80;88.00
20341;DHT22;10328;50.042;8.238;2022-08-30T15:43:15;30.80;88.20
20341;DHT22;10328;50.042;8.238;2022-08-30T15:45:42;30.80;87.80
20341;DHT22;10328;50.042;8.238;2022-08-30T15:48:09;30.70;87.90
20341;DHT22;10328;50.042;8.238;2022-08-30T15:50:36;30.60;87.90
20341;DHT22;10328;50.042;8.238;2022-08-30T15:53:03;30.50;88.60
20341;DHT22;10328;50.042;8.238;2022-08-30T15:55:32;30.30;89.10
20341;DHT22;10328;50.042;8.238;2022-08-30T15:57:59;30.10;89.40
20341;DHT22;10328;50.042;8.238;2022-08-30T16:00:26;30.10;89.20
20341;DHT22;10328;50.042;8.238;2022-08-30T16:02:53;29.90;89.80
20341;DHT22;10328;50.042;8.238;2022-08-30T16:05:20;29.90;89.80
20341;DHT22;10328;50.042;8.238;2022-08-30T16:07:50;29.80;90.10
20341;DHT22;10328;50.042;8.238;2022-08-30T16:10:18;29.80;90.00
20341;DHT22;10328;50.042;8.238;2022-08-30T16:12:45;29.80;90.10
20341;DHT22;10328;50.042;8.238;2022-08-30T16:15:12;29.80;89.90
20341;DHT22;10328;50.042;8.238;2022-08-30T16:17:39;29.80;89.80
20341;DHT22;10328;50.042;8.238;2022-08-30T16:20:07;29.80;90.00
20341;DHT22;10328;50.042;8.238;2022-08-30T16:22:34;29.80;90.00
20341;DHT22;10328;50.042;8.238;2022-08-30T16:25:03;29.70;90.00
20341;DHT22;10328;50.042;8.238;2022-08-30T16:27:32;29.70;89.90
20341;DHT22;10328;50.042;8.238;2022-08-30T16:29:59;29.80;90.10
20341;DHT22;10328;50.042;8.238;2022-08-30T16:32:25;29.70;90.20
20341;DHT22;10328;50.042;8.238;2022-08-30T16:34:52;29.70;90.40
20341;DHT22;10328;50.042;8.238;2022-08-30T16:37:19;29.60;90.40
20341;DHT22;10328;50.042;8.238;2022-08-30T16:39:45;29.60;90.60
20341;DHT22;10328;50.042;8.238;2022-08-30T16:42:12;29.50;90.70
20341;DHT22;10328;50.042;8.238;2022-08-30T16:44:46;29.50;90.90
20341;DHT22;10328;50.042;8.238;2022-08-30T16:47:15;29.40;91.00
20341;DHT22;10328;50.042;8.238;2022-08-30T16:49:41;29.40;90.90
20341;DHT22;10328;50.042;8.238;2022-08-30T16:52:08;29.40;90.90
20341;DHT22;10328;50.042;8.238;2022-08-30T16:54:37;29.30;91.10
20341;DHT22;10328;50.042;8.238;2022-08-30T16:57:04;29.20;91.10
20341;DHT22;10328;50.042;8.238;2022-08-30T16:59:32;29.20;91.30
20341;DHT22;10328;50.042;8.238;2022-08-30T17:01:59;29.10;91.30
20341;DHT22;10328;50.042;8.238;2022-08-30T17:04:26;29.10;91.20
20341;DHT22;10328;50.042;8.238;2022-08-30T17:06:53;29.00;91.20
20341;DHT22;10328;50.042;8.238;2022-08-30T17:09:20;29.00;91.20
20341;DHT22;10328;50.042;8.238;2022-08-30T17:11:47;29.00;91.40
20341;DHT22;10328;50.042;8.238;2022-08-30T17:14:15;29.00;91.30